Brownfield, ME (04010)

5:25 PM EDT on July 23, 2016 (GMT -0400)
misty lane | | Change Station

Elev 404 ft 43.94 °N, 70.87 °W | Updated 3 minutes ago

Light Thunderstorms and Rain
Light Thunderstorm Rain
70.1 °F
Feels Like 70.1 °F
N
0.0
Wind Variable Wind from NNW
Gusts 1.0 mph

Today
High -- | Low -- °F
--% Chance of Precip.
Yesterday
High -- | Low -- °F
Precip. -- in
Pressure 29.73 in
Visibility 5.0 miles
Clouds Few 4600 ft
Mostly Cloudy 8000 ft
Mostly Cloudy 11000 ft
Dew Point 68 °F
Humidity 92%
Rainfall 0.97 in
Snow Depth Not available.
5:23 AM 8:16 PM
Waning Gibbous, 82% visible
SPECI KIZG 231906Z AUTO 34011KT 5SM -TSRA FEW046 BKN080 BKN110 22/17 A2973 RMK AO2 LTG DSNT ALQDS RAB1855 TSB00 P0009 T02220172
Pressure 29.73 in
Visibility 5.0 miles
Clouds Few 4600 ft
Mostly Cloudy 8000 ft
Mostly Cloudy 11000 ft
Dew Point 68 °F
Humidity 92%
Rainfall 0.97 in
Snow Depth Not available.
5:23 AM 8:16 PM
Waning Gibbous, 82% visible
SPECI KIZG 231906Z AUTO 34011KT 5SM -TSRA FEW046 BKN080 BKN110 22/17 A2973 RMK AO2 LTG DSNT ALQDS RAB1855 TSB00 P0009 T02220172

10-Day Weather Forecast

Almanac

Astronomy

Jul. 23, 2016 Rise Set
Actual Time
Civil Twilight
Nautical Twilight
Astronomical Twilight
Moon
Length of Visible Light
Length of Day
Tomorrow will be .
, % of the Moon is Illuminated

Today's Extremes

State Highs State Lows

Community

WunderPhotos

Upload Photos

1,926,929 photos uploaded!

WunderBlog® & News

Nearby

Air Quality

  Air Quality AQ Index Pollutant
Not available.

Snow Depth

Station Depth Elevation

Earthquake Activity

City Distance Mag. Time & Date
Minimum magnitude displayed is 2.5.

Coastal Water Temperatures

Place Temperature

Stations

Nearby Weather Stations

Station Location Temp. Windchill Dew Point Humidity Wind Precip. Elev Updated Type
                   

Watches & Warnings

There are currently no watches in effect.